Indy South Greenwood (HFY)

 

Airport Diagram
No Airport Diagram Available
Current Weather/Forecast (VFR Conditions)
METAR KHFY 240055Z AUTO 32010G17KT 10SM 08/07 A3008 RMK AO2 T00760072
TAF

Airport Information

All Charts
General
Chart Name View
TAKEOFF MINIMUMS
ALTERNATE MINIMUMS
TAKEOFF MINIMUMS
ALTERNATE MINIMUMS

Departures
Chart Name Download
DAWNN ONE
DAWNN ONE, CONT.1
HOOSIER FIVE
MAREO FIVE
MEARZ SIX
MEARZ SIX, CONT.1
ROCKY ONE
DAWNN ONE
DAWNN ONE, CONT.1
HOOSIER FIVE
MAREO FIVE
MEARZ SIX
MEARZ SIX, CONT.1
ROCKY ONE

Arrivals
Chart Name Download
RACYR FIVE
RACYR FIVE

Approaches
Chart Name Download
RNAV (GPS) RWY 01
RNAV (GPS) RWY 19
VOR-A
RNAV (GPS) RWY 01
RNAV (GPS) RWY 19
VOR-A


Airport Statistics
Departures Arrivals Local
All Collected Stats since June 2016: 23 12 4
2020 Stats: 14 9 0
October Stats: 1 1 0

Inbound Traffic (Arrivals) - 0

No inbound traffic.


Outbound Traffic (Departures) - 0

No outbound traffic.


Local Traffic (Pattern) - 0

No local traffic.